createdAt,value
2018-04-25T00:00:29.659Z,99.90
2018-04-25T00:02:57.188Z,99.90
2018-04-25T00:05:24.700Z,99.90
2018-04-25T00:07:53.107Z,99.90
2018-04-25T00:10:20.665Z,99.90
2018-04-25T00:12:48.171Z,99.90
2018-04-25T00:15:16.474Z,99.90
2018-04-25T00:17:44.747Z,99.90
2018-04-25T00:20:13.056Z,99.90
2018-04-25T00:22:40.565Z,99.90
2018-04-25T00:25:08.889Z,99.90
2018-04-25T00:27:36.400Z,99.90
2018-04-25T00:30:03.942Z,99.90
2018-04-25T00:32:31.466Z,99.90
2018-04-25T00:34:59.001Z,99.90
2018-04-25T00:37:27.276Z,99.90
2018-04-25T00:39:55.574Z,99.90
2018-04-25T00:42:23.083Z,99.90
2018-04-25T00:44:50.710Z,99.90
2018-04-25T00:47:18.224Z,99.90
2018-04-25T00:49:46.529Z,99.90
2018-04-25T00:52:14.112Z,99.90
2018-04-25T00:54:41.668Z,99.90
2018-04-25T00:57:09.219Z,99.90
2018-04-25T00:59:36.764Z,99.90
2018-04-25T01:02:04.348Z,99.90
2018-04-25T01:04:31.868Z,99.90
2018-04-25T01:07:00.160Z,99.90
2018-04-25T01:09:27.676Z,99.90
2018-04-25T01:11:55.320Z,99.90
2018-04-25T01:14:22.744Z,99.90
2018-04-25T01:16:50.277Z,99.90
2018-04-25T01:19:18.562Z,99.90
2018-04-25T01:21:47.672Z,99.90
2018-04-25T01:24:15.187Z,99.90
2018-04-25T01:26:42.726Z,99.90
2018-04-25T01:29:10.240Z,99.90
2018-04-25T01:31:47.107Z,99.90
2018-04-25T01:34:19.017Z,99.90
2018-04-25T01:39:41.775Z,99.90
2018-04-25T01:42:28.828Z,99.90
2018-04-25T01:44:58.301Z,99.90
2018-04-25T01:47:34.884Z,99.90
2018-04-25T01:53:11.529Z,99.90
2018-04-25T01:55:51.732Z,99.90
2018-04-25T01:58:31.104Z,99.90
2018-04-25T02:01:10.613Z,99.90
2018-04-25T02:03:59.702Z,99.90
2018-04-25T02:06:27.217Z,99.90
2018-04-25T02:08:54.756Z,99.90
2018-04-25T02:11:23.037Z,99.90
2018-04-25T02:13:51.365Z,99.90
2018-04-25T02:16:18.904Z,99.90
2018-04-25T02:18:46.437Z,99.90
2018-04-25T02:21:14.716Z,99.90
2018-04-25T02:23:43.121Z,99.90
2018-04-25T02:26:10.640Z,99.90
2018-04-25T02:28:38.940Z,99.90
2018-04-25T02:31:06.460Z,99.90
2018-04-25T02:33:33.992Z,99.90
2018-04-25T02:36:01.541Z,99.90
2018-04-25T02:38:29.079Z,99.90
2018-04-25T02:40:56.720Z,99.90
2018-04-25T02:43:25.000Z,99.90
2018-04-25T02:45:53.300Z,99.90
2018-04-25T02:48:20.815Z,99.90
2018-04-25T02:50:48.351Z,99.90
2018-04-25T02:53:15.897Z,99.90
2018-04-25T02:55:43.430Z,99.90
2018-04-25T02:58:10.943Z,99.90
2018-04-25T03:00:38.487Z,99.90
2018-04-25T03:03:06.037Z,99.90
2018-04-25T03:05:33.573Z,99.90
2018-04-25T03:08:01.091Z,99.90
2018-04-25T03:10:28.643Z,99.90
2018-04-25T03:12:56.166Z,99.90
2018-04-25T03:15:23.695Z,99.90
2018-04-25T03:17:52.011Z,99.90
2018-04-25T03:20:19.544Z,99.90
2018-04-25T03:22:47.059Z,99.90
2018-04-25T03:25:14.596Z,99.90
2018-04-25T03:27:42.103Z,99.90
2018-04-25T03:30:10.380Z,99.90
2018-04-25T03:32:37.908Z,99.90
2018-04-25T03:35:05.414Z,99.90
2018-04-25T03:37:33.713Z,99.90
2018-04-25T03:40:01.233Z,99.90
2018-04-25T03:42:28.776Z,99.90
2018-04-25T03:44:56.292Z,99.90
2018-04-25T03:47:23.826Z,99.90
2018-04-25T03:49:52.105Z,99.90
2018-04-25T03:52:20.403Z,99.90
2018-04-25T03:54:47.926Z,99.90
2018-04-25T03:57:16.960Z,99.90
2018-04-25T03:59:44.477Z,99.90
2018-04-25T04:02:12.089Z,99.90
2018-04-25T04:04:39.657Z,99.90
2018-04-25T04:07:07.187Z,99.90
2018-04-25T04:09:35.468Z,99.90
2018-04-25T04:12:03.768Z,99.90
2018-04-25T04:14:31.329Z,99.90
2018-04-25T04:16:58.886Z,99.90
2018-04-25T04:19:26.454Z,99.90
2018-04-25T04:21:54.113Z,99.90
2018-04-25T04:24:21.628Z,99.90
2018-04-25T04:26:49.908Z,99.90
2018-04-25T04:29:18.213Z,99.90
2018-04-25T04:31:45.731Z,99.90
2018-04-25T04:34:14.032Z,99.90
2018-04-25T04:36:42.316Z,99.90
2018-04-25T04:39:10.615Z,99.90
2018-04-25T04:41:38.181Z,99.90
2018-04-25T04:44:05.747Z,99.90
2018-04-25T04:46:33.305Z,99.90
2018-04-25T04:49:00.836Z,99.90
2018-04-25T04:51:29.136Z,99.90
2018-04-25T04:53:56.672Z,99.90
2018-04-25T04:56:24.949Z,99.90
2018-04-25T04:58:53.249Z,99.90
2018-04-25T05:01:20.819Z,99.90
2018-04-25T05:03:48.362Z,99.90
2018-04-25T05:06:15.876Z,99.90
2018-04-25T05:08:43.504Z,99.90
2018-04-25T05:11:10.961Z,99.90
2018-04-25T05:13:38.491Z,99.90
2018-04-25T05:16:06.020Z,99.90
2018-04-25T05:18:33.556Z,99.90
2018-04-25T05:21:01.071Z,99.90
2018-04-25T05:23:29.371Z,99.90
2018-04-25T05:25:56.882Z,99.90
2018-04-25T05:28:24.415Z,99.90
2018-04-25T05:30:51.937Z,99.90
2018-04-25T05:33:19.454Z,99.90
2018-04-25T05:35:46.985Z,99.90
2018-04-25T05:38:14.493Z,99.90
2018-04-25T05:40:42.796Z,91.50
2018-04-25T05:43:10.308Z,91.40
2018-04-25T05:45:37.840Z,89.40
2018-04-25T05:48:05.353Z,85.80
2018-04-25T05:50:33.651Z,80.80
2018-04-25T05:53:01.167Z,80.50
2018-04-25T05:55:28.700Z,79.10
2018-04-25T05:57:56.307Z,78.60
2018-04-25T06:00:23.784Z,79.10
2018-04-25T06:02:51.296Z,75.50
2018-04-25T06:05:18.840Z,75.50
2018-04-25T06:07:46.352Z,73.00
2018-04-25T06:10:14.647Z,72.80
2018-04-25T06:12:42.160Z,72.70
2018-04-25T06:15:09.696Z,72.40
2018-04-25T06:17:37.212Z,72.60
2018-04-25T06:20:05.620Z,72.70
2018-04-25T06:22:33.136Z,72.60
2018-04-25T06:25:01.433Z,71.40
2018-04-25T06:27:28.953Z,71.40
2018-04-25T06:29:58.000Z,71.40
2018-04-25T06:32:25.512Z,71.50
2018-04-25T06:34:53.029Z,69.50
2018-04-25T06:37:20.568Z,69.50
2018-04-25T06:39:48.148Z,68.10
2018-04-25T06:42:15.681Z,65.60
2018-04-25T06:44:44.041Z,62.20
2018-04-25T06:47:11.544Z,62.20
2018-04-25T06:49:39.065Z,60.50
2018-04-25T06:52:07.364Z,62.60
2018-04-25T06:54:34.880Z,61.70
2018-04-25T06:57:02.417Z,62.00
2018-04-25T06:59:29.964Z,59.90
2018-04-25T07:01:57.500Z,60.20
2018-04-25T07:04:25.016Z,60.90
2018-04-25T07:06:52.556Z,64.20
2018-04-25T07:09:20.072Z,68.50
2018-04-25T07:11:48.443Z,77.90
2018-04-25T07:14:16.732Z,84.00
2018-04-25T07:16:45.129Z,89.30
2018-04-25T07:19:12.697Z,89.20
2018-04-25T07:21:40.256Z,91.00
2018-04-25T07:24:07.820Z,89.40
2018-04-25T07:26:35.335Z,86.20
2018-04-25T07:29:02.868Z,81.60
2018-04-25T07:31:30.380Z,80.10
2018-04-25T07:33:57.912Z,78.50
2018-04-25T07:36:25.520Z,79.30
2018-04-25T07:38:53.085Z,80.00
2018-04-25T07:41:20.603Z,76.50
2018-04-25T07:43:48.912Z,79.80
2018-04-25T07:46:16.428Z,79.80
2018-04-25T07:48:44.036Z,81.00
2018-04-25T07:51:11.558Z,78.10
2018-04-25T07:53:39.168Z,79.60
2018-04-25T07:56:06.688Z,79.80
2018-04-25T07:58:34.984Z,85.40
2018-04-25T08:01:02.501Z,85.30
2018-04-25T08:03:30.035Z,88.70
2018-04-25T08:05:57.623Z,90.90
2018-04-25T08:08:25.105Z,93.20
2018-04-25T08:10:53.383Z,96.90
2018-04-25T08:13:33.643Z,97.50
2018-04-25T08:16:13.814Z,97.40
2018-04-25T08:21:41.728Z,97.60
2018-04-25T08:24:09.262Z,97.30
2018-04-25T08:26:36.838Z,96.00
2018-04-25T08:29:04.367Z,96.70
2018-04-25T08:31:32.682Z,95.50
2018-04-25T08:34:00.219Z,95.50
2018-04-25T08:36:27.739Z,96.00
2018-04-25T08:38:55.362Z,93.50
2018-04-25T08:41:22.872Z,93.10
2018-04-25T08:43:50.409Z,92.80
2018-04-25T08:46:17.924Z,92.50
2018-04-25T08:48:45.444Z,92.60
2018-04-25T08:51:13.749Z,93.60
2018-04-25T08:53:42.032Z,94.40
2018-04-25T08:56:10.328Z,95.80
2018-04-25T08:58:37.845Z,95.80
2018-04-25T09:01:05.447Z,97.50
2018-04-25T09:03:32.955Z,96.10
2018-04-25T09:06:00.491Z,96.50
2018-04-25T09:08:28.008Z,95.90
2018-04-25T09:10:55.589Z,98.10
2018-04-25T09:13:23.105Z,97.70
2018-04-25T09:15:50.713Z,98.80
2018-04-25T09:18:18.229Z,99.90
2018-04-25T09:20:46.532Z,99.90
2018-04-25T09:23:14.044Z,99.90
2018-04-25T09:25:41.576Z,99.90
2018-04-25T09:28:09.126Z,99.90
2018-04-25T09:30:36.675Z,99.90
2018-04-25T09:33:04.196Z,99.90
2018-04-25T09:35:31.732Z,99.90
2018-04-25T09:37:59.248Z,99.90
2018-04-25T09:40:26.797Z,99.90
2018-04-25T09:42:55.076Z,99.90
2018-04-25T09:45:23.358Z,99.90
2018-04-25T09:47:51.768Z,99.90
2018-04-25T09:50:19.287Z,99.90
2018-04-25T09:52:47.590Z,99.90
2018-04-25T09:55:15.104Z,99.90
2018-04-25T09:57:42.810Z,99.90
2018-04-25T10:00:10.255Z,99.90
2018-04-25T10:02:38.557Z,99.90
2018-04-25T10:05:06.069Z,99.90
2018-04-25T10:07:33.600Z,99.90
2018-04-25T10:10:01.121Z,99.90
2018-04-25T10:12:28.662Z,99.90
2018-04-25T10:14:56.945Z,99.90
2018-04-25T10:17:25.291Z,99.90
2018-04-25T10:19:52.784Z,99.90
2018-04-25T10:22:21.195Z,99.90
2018-04-25T10:24:48.711Z,99.90
2018-04-25T10:27:17.011Z,99.90
2018-04-25T10:29:44.589Z,99.90
2018-04-25T10:32:12.128Z,99.90
2018-04-25T10:34:39.644Z,98.80
2018-04-25T10:37:07.176Z,99.90
2018-04-25T10:39:34.687Z,97.00
2018-04-25T10:42:02.225Z,94.60
2018-04-25T10:44:29.741Z,93.40
2018-04-25T10:46:57.291Z,94.70
2018-04-25T10:49:24.807Z,94.80
2018-04-25T10:51:52.315Z,92.10
2018-04-25T10:54:19.847Z,91.30
2018-04-25T10:56:48.127Z,84.30
2018-04-25T10:59:16.424Z,83.20
2018-04-25T11:01:43.943Z,83.20
2018-04-25T11:04:11.560Z,86.70
2018-04-25T11:06:39.080Z,83.30
2018-04-25T11:09:07.396Z,80.30
2018-04-25T11:11:34.959Z,79.50
2018-04-25T11:14:02.488Z,84.40
2018-04-25T11:16:30.767Z,90.00
2018-04-25T11:18:59.076Z,89.40
2018-04-25T11:21:26.633Z,89.40
2018-04-25T11:23:54.164Z,90.60
2018-04-25T11:26:22.448Z,91.80
2018-04-25T11:28:50.768Z,91.50
2018-04-25T11:31:18.276Z,91.50
2018-04-25T11:33:46.585Z,93.00
2018-04-25T11:36:14.120Z,93.00
2018-04-25T11:38:42.421Z,94.70
2018-04-25T11:41:09.952Z,94.70
2018-04-25T11:43:38.232Z,95.80
2018-04-25T11:46:06.532Z,96.40
2018-04-25T11:48:34.051Z,96.40
2018-04-25T11:51:01.585Z,97.80
2018-04-25T11:53:29.099Z,97.90
2018-04-25T11:55:56.636Z,98.70
2018-04-25T11:58:24.931Z,99.90
2018-04-25T12:00:52.471Z,99.90
2018-04-25T12:03:19.985Z,99.90
2018-04-25T12:05:47.538Z,99.90
2018-04-25T12:08:15.052Z,99.90
2018-04-25T12:10:43.347Z,99.90
2018-04-25T12:13:11.634Z,99.20
2018-04-25T12:15:39.208Z,99.20
2018-04-25T12:18:06.738Z,99.90
2018-04-25T12:20:35.040Z,98.00
2018-04-25T12:23:02.560Z,98.00
2018-04-25T12:25:30.887Z,99.90
2018-04-25T12:27:58.444Z,99.90
2018-04-25T12:30:25.967Z,99.90
2018-04-25T12:32:54.263Z,99.90
2018-04-25T12:35:21.795Z,99.90
2018-04-25T12:37:50.121Z,99.60
2018-04-25T12:40:17.688Z,99.90
2018-04-25T12:42:45.229Z,99.00
2018-04-25T12:45:12.751Z,97.70
2018-04-25T12:47:40.284Z,97.20
2018-04-25T12:50:07.800Z,97.20
2018-04-25T12:52:35.381Z,97.70
2018-04-25T12:55:02.899Z,97.20
2018-04-25T12:57:31.211Z,99.00
2018-04-25T12:59:58.777Z,98.90
2018-04-25T13:02:26.332Z,98.80
2018-04-25T13:04:53.905Z,97.70
2018-04-25T13:07:21.440Z,97.00
2018-04-25T13:09:48.952Z,97.20
2018-04-25T13:12:16.489Z,93.40
2018-04-25T13:14:44.038Z,95.10
2018-04-25T13:17:11.592Z,95.60
2018-04-25T13:19:39.107Z,94.40
2018-04-25T13:22:06.724Z,95.10
2018-04-25T13:24:34.277Z,95.10
2018-04-25T13:27:01.784Z,95.60
2018-04-25T13:29:29.324Z,95.80
2018-04-25T13:31:56.860Z,96.70
2018-04-25T13:34:24.415Z,96.00
2018-04-25T13:36:51.932Z,94.90
2018-04-25T13:39:19.473Z,95.00
2018-04-25T13:41:46.982Z,96.20
2018-04-25T13:44:14.520Z,99.90
2018-04-25T13:46:42.824Z,99.90
2018-04-25T13:49:10.342Z,99.90
2018-04-25T13:51:37.953Z,99.90
2018-04-25T13:54:05.484Z,99.90
2018-04-25T13:56:33.792Z,99.90
2018-04-25T13:59:01.327Z,99.90
2018-04-25T14:01:29.607Z,99.90
2018-04-25T14:03:57.908Z,99.90
2018-04-25T14:06:25.420Z,99.90
2018-04-25T14:08:52.948Z,99.90
2018-04-25T14:11:20.467Z,99.90
2018-04-25T14:13:48.041Z,99.90
2018-04-25T14:16:15.572Z,99.90
2018-04-25T14:18:43.852Z,99.90
2018-04-25T14:21:12.167Z,99.90
2018-04-25T14:23:39.721Z,99.90
2018-04-25T14:26:07.254Z,99.90
2018-04-25T14:28:35.534Z,99.90
2018-04-25T14:31:03.941Z,99.90
2018-04-25T14:33:31.499Z,99.90
2018-04-25T14:35:59.768Z,99.90
2018-04-25T14:38:27.331Z,99.90
2018-04-25T14:40:54.900Z,99.90
2018-04-25T14:43:22.466Z,99.90
2018-04-25T14:45:49.995Z,99.90
2018-04-25T14:48:18.339Z,99.90
2018-04-25T14:50:45.826Z,99.90
2018-04-25T14:53:14.103Z,99.90
2018-04-25T14:55:42.396Z,99.90
2018-04-25T14:58:09.973Z,99.90
2018-04-25T15:00:37.532Z,99.90
2018-04-25T15:03:05.044Z,99.90
2018-04-25T15:05:32.583Z,99.90
2018-04-25T15:08:00.104Z,99.90
2018-04-25T15:10:27.671Z,99.90
2018-04-25T15:12:55.203Z,99.90
2018-04-25T15:15:23.500Z,99.90
2018-04-25T15:17:51.020Z,99.90
2018-04-25T15:20:18.633Z,99.90
2018-04-25T15:22:46.159Z,99.90
2018-04-25T15:25:14.442Z,99.90
2018-04-25T15:27:41.993Z,99.90
2018-04-25T15:30:10.310Z,99.90
2018-04-25T15:32:37.845Z,99.90
2018-04-25T15:35:05.360Z,99.90
2018-04-25T15:37:32.891Z,99.90
2018-04-25T15:40:00.404Z,99.90
2018-04-25T15:42:28.706Z,99.90
2018-04-25T15:44:56.223Z,99.90
2018-04-25T15:47:24.564Z,99.90
2018-04-25T15:49:52.120Z,99.90
2018-04-25T15:52:19.670Z,99.90
2018-04-25T15:54:47.191Z,99.90
2018-04-25T15:57:14.720Z,99.90
2018-04-25T15:59:42.248Z,99.90
2018-04-25T16:02:09.760Z,99.90
2018-04-25T16:04:37.292Z,99.90
2018-04-25T16:07:04.843Z,99.90
2018-04-25T16:09:32.371Z,99.90
2018-04-25T16:12:00.670Z,99.90
2018-04-25T16:14:28.216Z,99.90
2018-04-25T16:16:55.796Z,99.90
2018-04-25T16:19:23.332Z,99.90
2018-04-25T16:21:51.646Z,99.90
2018-04-25T16:24:19.185Z,99.90
2018-04-25T16:26:46.703Z,99.90
2018-04-25T16:29:14.326Z,99.90
2018-04-25T16:31:41.837Z,99.90
2018-04-25T16:34:09.440Z,99.90
2018-04-25T16:36:36.966Z,99.90
2018-04-25T16:39:05.267Z,99.90
2018-04-25T16:41:32.779Z,99.90
2018-04-25T16:44:00.400Z,99.90
2018-04-25T16:46:27.915Z,99.90
2018-04-25T16:48:55.454Z,99.90
2018-04-25T16:51:22.970Z,99.90
2018-04-25T16:53:50.546Z,99.90
2018-04-25T16:56:18.096Z,99.90
2018-04-25T16:58:45.639Z,99.90
2018-04-25T17:01:13.156Z,99.90
2018-04-25T17:03:41.440Z,99.90
2018-04-25T17:06:08.976Z,99.90
2018-04-25T17:08:36.517Z,99.90
2018-04-25T17:11:04.056Z,99.90
2018-04-25T17:13:31.897Z,99.90
2018-04-25T17:15:59.433Z,99.90
2018-04-25T17:18:28.287Z,99.90
2018-04-25T17:20:55.953Z,99.90
2018-04-25T17:23:23.512Z,99.90
2018-04-25T17:25:51.079Z,99.90
2018-04-25T17:28:18.587Z,99.90
2018-04-25T17:30:46.120Z,99.90
2018-04-25T17:33:13.632Z,99.90
2018-04-25T17:35:41.928Z,99.90
2018-04-25T17:38:09.492Z,99.90
2018-04-25T17:40:37.049Z,99.90
2018-04-25T17:43:04.565Z,99.90
2018-04-25T17:45:32.104Z,99.90
2018-04-25T17:47:59.631Z,99.90
2018-04-25T17:50:27.167Z,99.90
2018-04-25T17:52:55.448Z,99.90
2018-04-25T17:55:22.987Z,99.90
2018-04-25T17:57:51.313Z,99.90
2018-04-25T18:00:18.843Z,99.90
2018-04-25T18:02:46.384Z,99.90
2018-04-25T18:05:14.659Z,99.90
2018-04-25T18:07:42.955Z,99.90
2018-04-25T18:10:11.257Z,99.90
2018-04-25T18:12:38.798Z,99.90
2018-04-25T18:15:06.317Z,99.90
2018-04-25T18:17:35.366Z,99.90
2018-04-25T18:20:02.879Z,99.90
2018-04-25T18:22:30.407Z,99.90
2018-04-25T18:24:57.915Z,99.90
2018-04-25T18:27:26.229Z,99.90
2018-04-25T18:29:53.789Z,99.90
2018-04-25T18:32:21.320Z,99.90
2018-04-25T18:34:49.603Z,99.90
2018-04-25T18:37:17.206Z,99.90
2018-04-25T18:39:44.747Z,99.90
2018-04-25T18:42:12.280Z,99.90
2018-04-25T18:44:40.564Z,99.90
2018-04-25T18:47:08.969Z,99.90
2018-04-25T18:49:36.527Z,99.90
2018-04-25T18:52:04.064Z,99.90
2018-04-25T18:54:31.572Z,99.90
2018-04-25T18:56:59.130Z,99.90
2018-04-25T18:59:26.645Z,99.90
2018-04-25T19:01:54.166Z,99.90
2018-04-25T19:04:21.705Z,99.90
2018-04-25T19:06:49.220Z,99.90
2018-04-25T19:09:17.518Z,99.90
2018-04-25T19:11:45.036Z,99.90
2018-04-25T19:14:12.646Z,99.90
2018-04-25T19:16:40.160Z,99.90
2018-04-25T19:19:08.476Z,99.90
2018-04-25T19:21:35.990Z,99.90
2018-04-25T19:24:04.292Z,99.90
2018-04-25T19:26:31.808Z,99.90
2018-04-25T19:28:59.344Z,99.90
2018-04-25T19:31:26.860Z,99.90
2018-04-25T19:33:55.172Z,99.90
2018-04-25T19:36:22.688Z,99.90
2018-04-25T19:38:50.987Z,99.90
2018-04-25T19:41:18.504Z,99.90
2018-04-25T19:43:46.037Z,99.90
2018-04-25T19:46:13.554Z,99.90
2018-04-25T19:48:41.861Z,99.90
2018-04-25T19:51:09.376Z,99.90
2018-04-25T19:53:36.887Z,99.90
2018-04-25T19:56:04.528Z,99.90
2018-04-25T19:58:32.110Z,99.90
2018-04-25T20:00:59.666Z,99.90
2018-04-25T20:03:27.191Z,99.90
2018-04-25T20:05:55.485Z,99.90
2018-04-25T20:08:23.117Z,99.90
2018-04-25T20:10:50.615Z,99.90
2018-04-25T20:13:18.131Z,99.90
2018-04-25T20:15:45.664Z,99.90
2018-04-25T20:18:13.173Z,99.90
2018-04-25T20:20:41.480Z,99.90
2018-04-25T20:23:09.040Z,99.90
2018-04-25T20:25:36.572Z,99.90
2018-04-25T20:28:04.852Z,99.90
2018-04-25T20:30:33.156Z,99.90
2018-04-25T20:33:00.716Z,99.90
2018-04-25T20:35:28.253Z,99.90
2018-04-25T20:37:56.559Z,99.90
2018-04-25T20:40:24.091Z,99.90
2018-04-25T20:42:52.372Z,99.90
2018-04-25T20:45:19.904Z,99.90
2018-04-25T20:47:47.423Z,99.90
2018-04-25T20:50:15.019Z,99.90
2018-04-25T20:52:42.532Z,99.90
2018-04-25T20:55:10.089Z,99.90
2018-04-25T20:57:37.604Z,99.90
2018-04-25T21:00:05.119Z,99.90
2018-04-25T21:02:32.759Z,99.90
2018-04-25T21:05:00.188Z,99.90
2018-04-25T21:07:28.495Z,99.90
2018-04-25T21:09:56.014Z,99.90
2018-04-25T21:12:24.330Z,99.90
2018-04-25T21:14:51.910Z,99.90
2018-04-25T21:17:19.462Z,99.90
2018-04-25T21:19:46.973Z,99.90
2018-04-25T21:22:14.508Z,99.90
2018-04-25T21:24:42.032Z,99.90
2018-04-25T21:27:09.568Z,99.90
2018-04-25T21:29:37.843Z,99.90
2018-04-25T21:32:06.137Z,99.90
2018-04-25T21:34:33.659Z,99.90
2018-04-25T21:37:01.996Z,99.90
2018-04-25T21:39:29.512Z,99.90
2018-04-25T21:41:57.820Z,99.90
2018-04-25T21:44:25.336Z,99.90
2018-04-25T21:46:53.642Z,99.90
2018-04-25T21:49:21.920Z,99.90
2018-04-25T21:51:50.224Z,99.90
2018-04-25T21:54:17.758Z,99.90
2018-04-25T21:56:46.036Z,99.90
2018-04-25T21:59:14.339Z,99.90
2018-04-25T22:01:41.857Z,99.90
2018-04-25T22:04:10.157Z,99.90
2018-04-25T22:06:37.747Z,99.90
2018-04-25T22:09:05.285Z,99.90
2018-04-25T22:11:32.863Z,99.90
2018-04-25T22:14:00.398Z,99.90
2018-04-25T22:16:27.989Z,99.90
2018-04-25T22:18:55.523Z,99.90
2018-04-25T22:21:23.050Z,99.90
2018-04-25T22:23:50.587Z,99.90
2018-04-25T22:26:18.096Z,99.90
2018-04-25T22:28:46.387Z,99.90
2018-04-25T22:31:13.957Z,99.90
2018-04-25T22:33:41.494Z,99.90
2018-04-25T22:36:09.016Z,99.90
2018-04-25T22:38:36.553Z,99.90
2018-04-25T22:41:04.076Z,99.90
2018-04-25T22:43:31.609Z,99.90
2018-04-25T22:45:59.133Z,99.90
2018-04-25T22:48:26.759Z,99.90
2018-04-25T22:50:54.281Z,99.90
2018-04-25T22:53:23.320Z,99.90
2018-04-25T22:55:50.836Z,99.90
2018-04-25T22:58:18.373Z,99.90
2018-04-25T23:00:45.886Z,99.90
2018-04-25T23:03:13.419Z,99.90
2018-04-25T23:05:40.932Z,99.90
2018-04-25T23:08:08.482Z,99.90
2018-04-25T23:10:36.005Z,99.90
2018-04-25T23:13:04.328Z,99.90
2018-04-25T23:15:31.840Z,99.90
2018-04-25T23:17:59.355Z,99.90
2018-04-25T23:20:26.904Z,99.90
2018-04-25T23:22:54.418Z,99.90
2018-04-25T23:25:22.719Z,99.90
2018-04-25T23:27:50.310Z,99.90
2018-04-25T23:30:17.847Z,99.90
2018-04-25T23:32:45.415Z,99.90
2018-04-25T23:35:12.956Z,99.90
2018-04-25T23:37:41.240Z,99.90
2018-04-25T23:40:08.771Z,99.90
2018-04-25T23:42:36.289Z,99.90
2018-04-25T23:45:03.841Z,99.90
2018-04-25T23:47:31.398Z,99.90
2018-04-25T23:49:58.937Z,99.90
2018-04-25T23:52:26.457Z,99.90
2018-04-25T23:54:53.993Z,99.90
2018-04-25T23:57:21.532Z,99.90
2018-04-25T23:59:49.068Z,99.90
